createdAt,value
2023-02-24T00:02:20.478Z,7.09
2023-02-24T00:04:52.128Z,6.97
2023-02-24T00:07:22.699Z,7.04
2023-02-24T00:09:51.932Z,7.04
2023-02-24T00:12:21.031Z,7.29
2023-02-24T00:14:50.715Z,7.31
2023-02-24T00:17:20.664Z,7.44
2023-02-24T00:19:49.294Z,7.43
2023-02-24T00:22:17.882Z,7.42
2023-02-24T00:24:48.450Z,7.30
2023-02-24T00:27:19.162Z,7.36
2023-02-24T00:29:48.164Z,7.30
2023-02-24T00:32:21.651Z,7.25
2023-02-24T00:34:55.774Z,7.28
2023-02-24T00:37:25.054Z,7.27
2023-02-24T00:39:58.887Z,7.28
2023-02-24T00:42:30.208Z,7.28
2023-02-24T00:44:59.514Z,7.19
2023-02-24T00:47:28.613Z,7.19
2023-02-24T00:49:57.391Z,7.10
2023-02-24T00:52:28.248Z,7.03
2023-02-24T00:54:59.481Z,6.60
2023-02-24T00:57:29.701Z,6.85
2023-02-24T01:00:00.656Z,6.93
2023-02-24T01:02:29.739Z,6.93
2023-02-24T01:04:58.226Z,6.84
2023-02-24T01:07:32.225Z,6.83
2023-02-24T01:10:05.723Z,6.86
2023-02-24T01:12:49.657Z,6.92
2023-02-24T01:15:20.613Z,6.76
2023-02-24T01:17:49.745Z,6.89
2023-02-24T01:20:19.292Z,7.00
2023-02-24T01:22:49.582Z,6.95
2023-02-24T01:25:22.899Z,6.91
2023-02-24T01:27:54.664Z,7.04
2023-02-24T01:30:24.747Z,7.03
2023-02-24T01:32:55.125Z,6.90
2023-02-24T01:35:24.605Z,7.03
2023-02-24T01:37:54.822Z,6.67
2023-02-24T01:40:27.644Z,6.93
2023-02-24T01:42:56.232Z,6.91
2023-02-24T01:45:28.956Z,6.67
2023-02-24T01:48:01.890Z,6.94
2023-02-24T01:50:36.022Z,6.91
2023-02-24T01:53:11.822Z,7.00
2023-02-24T01:55:47.431Z,7.14
2023-02-24T01:58:20.572Z,7.06
2023-02-24T02:00:49.583Z,7.18
2023-02-24T02:03:29.849Z,7.03
2023-02-24T02:06:03.409Z,7.20
2023-02-24T02:08:34.442Z,7.13
2023-02-24T02:11:07.262Z,7.25
2023-02-24T02:13:38.283Z,7.13
2023-02-24T02:16:26.114Z,7.25
2023-02-24T02:19:07.426Z,7.21
2023-02-24T02:22:07.205Z,7.38
2023-02-24T02:24:50.336Z,7.19
2023-02-24T02:27:52.908Z,7.30
2023-02-24T02:30:56.469Z,7.31
2023-02-24T02:34:07.191Z,7.40
2023-02-24T02:36:43.452Z,7.39
2023-02-24T02:39:15.945Z,7.46
2023-02-24T02:41:54.532Z,7.30
2023-02-24T02:44:32.931Z,7.24
2023-02-24T02:47:09.531Z,7.07
2023-02-24T02:49:45.604Z,7.40
2023-02-24T02:52:18.142Z,7.31
2023-02-24T02:54:50.856Z,7.28
2023-02-24T02:57:23.074Z,7.16
2023-02-24T02:59:57.921Z,7.37
2023-02-24T03:02:32.186Z,7.19
2023-02-24T03:05:05.483Z,7.33
2023-02-24T03:07:42.737Z,7.41
2023-02-24T03:10:21.046Z,7.23
2023-02-24T03:12:53.594Z,7.43
2023-02-24T03:15:23.842Z,7.41
2023-02-24T03:17:57.739Z,7.32
2023-02-24T03:20:34.315Z,7.40
2023-02-24T03:23:06.584Z,7.26
2023-02-24T03:25:44.704Z,7.35
2023-02-24T03:28:26.153Z,7.12
2023-02-24T03:30:59.927Z,7.33
2023-02-24T03:33:34.803Z,7.50
2023-02-24T03:36:07.370Z,7.46
2023-02-24T03:38:42.740Z,7.37
2023-02-24T03:41:12.818Z,7.22
2023-02-24T03:43:46.636Z,7.41
2023-02-24T03:46:17.228Z,7.36
2023-02-24T03:48:50.538Z,7.29
2023-02-24T03:51:25.644Z,7.24
2023-02-24T03:54:06.132Z,7.45
2023-02-24T03:56:43.448Z,7.32
2023-02-24T03:59:19.278Z,7.44
2023-02-24T04:01:58.128Z,7.48
2023-02-24T04:04:32.542Z,7.36
2023-02-24T04:07:10.971Z,7.66
2023-02-24T04:09:45.984Z,7.50
2023-02-24T04:12:20.104Z,7.51
2023-02-24T04:14:53.352Z,7.58
2023-02-24T04:17:26.666Z,7.51
2023-02-24T04:19:59.453Z,7.48
2023-02-24T04:22:33.461Z,7.32
2023-02-24T04:25:03.595Z,7.48
2023-02-24T04:27:32.350Z,7.42
2023-02-24T04:30:05.156Z,7.29
2023-02-24T04:32:35.439Z,7.22
2023-02-24T04:35:09.510Z,7.45
2023-02-24T04:37:46.248Z,7.59
2023-02-24T04:40:19.018Z,7.39
2023-02-24T04:42:50.480Z,7.28
2023-02-24T04:45:23.924Z,7.39
2023-02-24T04:47:57.311Z,7.41
2023-02-24T04:50:27.010Z,7.30
2023-02-24T04:53:01.171Z,7.38
2023-02-24T04:55:33.412Z,7.24
2023-02-24T04:58:03.158Z,7.35
2023-02-24T05:00:38.514Z,7.18
2023-02-24T05:03:09.029Z,7.30
2023-02-24T05:05:38.444Z,7.45
2023-02-24T05:08:12.241Z,7.38
2023-02-24T05:10:44.931Z,7.38
2023-02-24T05:13:15.483Z,7.23
2023-02-24T05:15:46.152Z,7.25
2023-02-24T05:18:17.348Z,7.17
2023-02-24T05:21:07.500Z,7.03
2023-02-24T05:23:41.143Z,6.84
2023-02-24T05:26:10.996Z,7.13
2023-02-24T05:28:42.148Z,7.10
2023-02-24T05:31:15.222Z,7.25
2023-02-24T05:33:47.668Z,7.17
2023-02-24T05:36:19.423Z,7.09
2023-02-24T05:38:52.200Z,7.26
2023-02-24T05:41:22.448Z,7.34
2023-02-24T05:43:57.942Z,7.33
2023-02-24T05:46:32.792Z,7.37
2023-02-24T05:49:03.778Z,7.62
2023-02-24T05:54:56.004Z,7.58
2023-02-24T05:57:27.632Z,7.46
2023-02-24T05:59:56.513Z,7.57
2023-02-24T06:02:30.839Z,7.39
2023-02-24T06:05:05.244Z,7.57
2023-02-24T06:07:37.435Z,7.52
2023-02-24T06:10:22.784Z,7.27
2023-02-24T06:12:55.080Z,7.46
2023-02-24T06:15:25.271Z,7.39
2023-02-24T06:17:56.677Z,7.52
2023-02-24T06:20:28.607Z,7.47
2023-02-24T06:31:13.017Z,7.85
2023-02-24T06:33:42.623Z,7.76
2023-02-24T06:36:11.593Z,7.76
2023-02-24T06:38:40.975Z,7.75
2023-02-24T06:41:12.370Z,7.85
2023-02-24T06:43:41.249Z,7.95
2023-02-24T06:46:13.620Z,7.85
2023-02-24T06:48:42.708Z,7.84
2023-02-24T06:51:15.777Z,7.68
2023-02-24T06:53:46.194Z,7.98
2023-02-24T06:56:20.211Z,7.90
2023-02-24T06:58:52.441Z,7.83
2023-02-24T07:01:32.156Z,7.82
2023-02-24T07:04:19.208Z,7.87
2023-02-24T07:06:52.611Z,8.11
2023-02-24T07:09:24.722Z,7.98
2023-02-24T07:11:57.130Z,8.00
2023-02-24T07:14:27.952Z,7.80
2023-02-24T07:16:59.648Z,7.84
2023-02-24T07:19:32.879Z,8.03
2023-02-24T07:22:06.133Z,7.96
2023-02-24T07:24:37.903Z,8.02
2023-02-24T07:27:07.941Z,7.90
2023-02-24T07:29:37.773Z,7.97
2023-02-24T07:32:10.044Z,7.84
2023-02-24T07:34:40.954Z,7.81
2023-02-24T07:37:14.422Z,7.85
2023-02-24T07:39:43.625Z,8.00
2023-02-24T07:42:13.880Z,7.91
2023-02-24T07:44:44.577Z,7.71
2023-02-24T07:47:16.154Z,8.23
2023-02-24T07:49:45.697Z,8.07
2023-02-24T07:52:16.671Z,8.15
2023-02-24T07:54:45.840Z,8.03
2023-02-24T07:57:15.105Z,7.96
2023-02-24T07:59:54.705Z,8.18
2023-02-24T08:05:11.809Z,8.32
2023-02-24T08:07:41.277Z,8.09
2023-02-24T08:10:24.485Z,8.37
2023-02-24T08:12:57.519Z,8.28
2023-02-24T08:15:34.485Z,8.02
2023-02-24T08:18:06.342Z,8.48
2023-02-24T08:20:52.513Z,8.42
2023-02-24T08:23:23.586Z,8.41
2023-02-24T08:25:54.272Z,8.39
2023-02-24T08:28:27.105Z,8.58
2023-02-24T08:30:56.036Z,8.50
2023-02-24T08:33:30.340Z,8.45
2023-02-24T08:36:03.002Z,8.22
2023-02-24T08:38:52.295Z,8.38
2023-02-24T08:41:46.304Z,8.46
2023-02-24T08:44:19.473Z,8.70
2023-02-24T08:46:59.645Z,8.77
2023-02-24T08:49:36.818Z,8.16
2023-02-24T08:52:11.012Z,8.26
2023-02-24T08:55:02.228Z,8.43
2023-02-24T08:57:36.567Z,8.74
2023-02-24T09:00:28.519Z,8.16
2023-02-24T09:03:12.158Z,8.31
2023-02-24T09:05:43.571Z,8.22
2023-02-24T09:08:16.580Z,8.74
2023-02-24T09:10:57.376Z,8.21
2023-02-24T09:13:33.141Z,8.30
2023-02-24T09:16:25.371Z,8.51
2023-02-24T09:19:08.960Z,8.74
2023-02-24T09:22:26.480Z,8.13
2023-02-24T09:25:28.593Z,8.63
2023-02-24T09:28:08.410Z,8.70
2023-02-24T09:30:51.481Z,8.55
2023-02-24T09:33:23.180Z,8.74
2023-02-24T09:36:03.966Z,8.93
2023-02-24T09:38:53.812Z,8.95
2023-02-24T09:41:34.323Z,8.79
2023-02-24T09:44:09.093Z,8.95
2023-02-24T09:49:48.506Z,8.65
2023-02-24T09:52:20.107Z,8.62
2023-02-24T09:55:11.633Z,8.73
2023-02-24T09:58:07.268Z,9.00
2023-02-24T10:00:44.174Z,8.58
2023-02-24T10:03:20.951Z,8.78
2023-02-24T10:05:59.236Z,8.96
2023-02-24T10:08:34.472Z,9.00
2023-02-24T10:11:12.467Z,9.12
2023-02-24T10:13:50.786Z,8.87
2023-02-24T10:16:25.627Z,9.30
2023-02-24T10:19:15.810Z,9.30
2023-02-24T10:22:06.271Z,9.13
2023-02-24T10:24:47.587Z,9.06
2023-02-24T10:27:24.823Z,9.17
2023-02-24T10:30:11.420Z,8.97
2023-02-24T10:32:51.877Z,9.17
2023-02-24T10:35:26.290Z,9.36
2023-02-24T10:41:48.426Z,9.04
2023-02-24T10:44:24.931Z,9.11
2023-02-24T10:47:11.989Z,9.53
2023-02-24T10:49:57.300Z,9.62
2023-02-24T10:52:37.458Z,9.49
2023-02-24T10:55:28.212Z,9.43
2023-02-24T10:58:07.416Z,9.77
2023-02-24T11:01:02.495Z,9.58
2023-02-24T11:03:42.469Z,10.08
2023-02-24T11:06:52.890Z,10.14
2023-02-24T11:09:44.993Z,10.02
2023-02-24T11:12:34.920Z,10.19
2023-02-24T11:15:24.753Z,10.16
2023-02-24T11:17:57.153Z,10.59
2023-02-24T11:20:42.501Z,10.64
2023-02-24T11:23:20.614Z,10.46
2023-02-24T11:25:51.150Z,10.84
2023-02-24T11:28:33.819Z,11.03
2023-02-24T11:31:15.635Z,11.67
2023-02-24T11:33:55.431Z,11.51
2023-02-24T11:36:31.346Z,11.49
2023-02-24T11:39:18.755Z,11.74
2023-02-24T11:41:55.804Z,11.57
2023-02-24T11:44:30.021Z,11.77
2023-02-24T11:50:27.624Z,12.19
2023-02-24T11:52:58.275Z,12.16
2023-02-24T11:55:39.110Z,12.17
2023-02-24T11:58:17.157Z,12.59
2023-02-24T12:01:01.442Z,12.01
2023-02-24T12:03:38.908Z,12.17
2023-02-24T12:06:18.722Z,12.02
2023-02-24T12:08:50.802Z,12.48
2023-02-24T12:11:30.145Z,12.33
2023-02-24T12:14:18.403Z,12.29
2023-02-24T12:16:53.435Z,12.21
2023-02-24T12:19:31.487Z,12.49
2023-02-24T12:22:06.484Z,12.57
2023-02-24T12:24:39.205Z,12.43
2023-02-24T12:27:20.014Z,12.04
2023-02-24T12:30:15.613Z,12.41
2023-02-24T12:33:01.915Z,12.39
2023-02-24T12:35:38.804Z,12.42
2023-02-24T12:38:35.819Z,12.30
2023-02-24T12:41:19.912Z,12.52
2023-02-24T12:43:54.904Z,12.92
2023-02-24T12:46:27.313Z,12.98
2023-02-24T12:49:10.693Z,12.98
2023-02-24T12:51:48.450Z,13.53
2023-02-24T12:54:24.810Z,13.40
2023-02-24T12:56:58.601Z,13.03
2023-02-24T12:59:29.706Z,13.48
2023-02-24T13:02:03.119Z,13.29
2023-02-24T13:04:47.848Z,13.17
2023-02-24T13:07:35.939Z,13.41
2023-02-24T13:10:27.910Z,12.57
2023-02-24T13:13:05.675Z,11.66
2023-02-24T13:15:34.539Z,11.70
2023-02-24T13:18:03.827Z,11.44
2023-02-24T13:20:35.001Z,11.09
2023-02-24T13:23:23.180Z,10.58
2023-02-24T13:25:53.258Z,11.09
2023-02-24T13:28:28.447Z,11.30
2023-02-24T13:31:02.349Z,10.51
2023-02-24T13:33:38.460Z,10.73
2023-02-24T13:36:17.751Z,11.33
2023-02-24T13:38:49.567Z,11.14
2023-02-24T13:41:37.671Z,11.55
2023-02-24T13:44:30.546Z,11.27
2023-02-24T13:47:32.509Z,11.17
2023-02-24T13:50:36.119Z,11.29
2023-02-24T13:53:20.045Z,11.12
2023-02-24T13:56:12.152Z,10.88
2023-02-24T13:59:06.151Z,11.28
2023-02-24T14:01:47.155Z,11.05
2023-02-24T14:11:28.935Z,11.51
2023-02-24T14:14:03.780Z,12.08
2023-02-24T14:16:40.388Z,11.98
2023-02-24T14:19:17.338Z,12.07
2023-02-24T14:21:55.613Z,11.86
2023-02-24T14:24:25.644Z,11.78
2023-02-24T14:26:57.636Z,12.39
2023-02-24T14:29:31.257Z,12.07
2023-02-24T14:32:00.716Z,11.65
2023-02-24T14:34:32.283Z,11.83
2023-02-24T14:37:03.929Z,11.54
2023-02-24T14:39:34.550Z,11.74
2023-02-24T14:42:15.397Z,11.27
2023-02-24T14:44:52.839Z,11.05
2023-02-24T14:47:22.945Z,11.13
2023-02-24T14:49:57.267Z,10.59
2023-02-24T14:52:37.889Z,11.17
2023-02-24T14:55:13.895Z,11.18
2023-02-24T14:57:46.678Z,11.35
2023-02-24T15:00:24.409Z,11.19
2023-02-24T15:02:58.714Z,10.66
2023-02-24T15:05:27.795Z,10.79
2023-02-24T15:07:59.142Z,10.58
2023-02-24T15:10:32.077Z,10.77
2023-02-24T15:13:14.299Z,11.05
2023-02-24T15:15:45.029Z,10.99
2023-02-24T15:18:26.909Z,10.69
2023-02-24T15:21:03.280Z,10.46
2023-02-24T15:23:35.116Z,10.57
2023-02-24T15:26:04.887Z,10.35
2023-02-24T15:28:36.786Z,10.68
2023-02-24T15:31:11.223Z,11.02
2023-02-24T15:33:42.994Z,10.47
2023-02-24T15:36:13.798Z,10.75
2023-02-24T15:38:44.668Z,10.86
2023-02-24T15:41:15.977Z,10.51
2023-02-24T15:43:53.280Z,10.58
2023-02-24T15:46:30.101Z,10.78
2023-02-24T15:49:04.164Z,10.53
2023-02-24T15:51:37.243Z,11.17
2023-02-24T15:54:08.178Z,10.74
2023-02-24T15:56:37.163Z,10.23
2023-02-24T15:59:07.307Z,10.31
2023-02-24T16:01:39.073Z,10.26
2023-02-24T16:04:09.682Z,10.01
2023-02-24T16:06:41.947Z,10.39
2023-02-24T16:09:14.836Z,10.34
2023-02-24T16:11:45.671Z,9.54
2023-02-24T16:14:19.174Z,9.93
2023-02-24T16:16:48.364Z,9.79
2023-02-24T16:19:26.065Z,9.96
2023-02-24T16:21:54.869Z,9.94
2023-02-24T16:24:24.419Z,9.66
2023-02-24T16:26:53.541Z,9.87
2023-02-24T16:29:23.976Z,9.53
2023-02-24T16:31:53.405Z,10.13
2023-02-24T16:34:23.408Z,9.53
2023-02-24T16:36:52.312Z,9.42
2023-02-24T16:39:22.555Z,8.79
2023-02-24T16:41:59.981Z,9.32
2023-02-24T16:44:32.364Z,9.21
2023-02-24T16:47:03.318Z,8.95
2023-02-24T16:49:32.230Z,9.48
2023-02-24T16:52:01.635Z,9.21
2023-02-24T16:54:31.220Z,8.95
2023-02-24T16:57:04.020Z,8.95
2023-02-24T16:59:37.831Z,9.16
2023-02-24T17:02:07.645Z,9.07
2023-02-24T17:04:36.906Z,8.49
2023-02-24T17:07:06.393Z,8.73
2023-02-24T17:09:35.602Z,8.55
2023-02-24T17:12:07.201Z,8.56
2023-02-24T17:14:44.806Z,8.56
2023-02-24T17:17:14.261Z,8.43
2023-02-24T17:19:44.340Z,8.74
2023-02-24T17:22:14.138Z,8.48
2023-02-24T17:24:44.755Z,8.67
2023-02-24T17:27:14.370Z,9.00
2023-02-24T17:33:02.213Z,8.66
2023-02-24T17:35:32.050Z,8.79
2023-02-24T17:38:03.282Z,8.23
2023-02-24T17:46:28.117Z,8.53
2023-02-24T17:49:01.276Z,8.04
2023-02-24T17:51:30.772Z,7.94
2023-02-24T17:54:01.085Z,8.12
2023-02-24T17:56:33.916Z,8.02
2023-02-24T17:59:04.670Z,8.17
2023-02-24T18:01:35.409Z,8.41
2023-02-24T18:04:04.434Z,7.97
2023-02-24T18:06:33.751Z,8.02
2023-02-24T18:09:03.174Z,7.99
2023-02-24T18:11:33.281Z,8.33
2023-02-24T18:14:05.658Z,8.11
2023-02-24T18:16:41.034Z,8.33
2023-02-24T18:19:11.523Z,7.77
2023-02-24T18:21:42.756Z,8.43
2023-02-24T18:27:16.328Z,8.27
2023-02-24T18:29:47.943Z,8.10
2023-02-24T18:32:18.587Z,8.27
2023-02-24T18:34:51.409Z,7.94
2023-02-24T18:37:20.759Z,8.16
2023-02-24T18:39:54.876Z,8.10
2023-02-24T18:42:26.273Z,8.24
2023-02-24T18:44:59.289Z,7.97
2023-02-24T18:50:25.485Z,8.34
2023-02-24T18:52:57.725Z,8.11
2023-02-24T18:55:28.916Z,8.07
2023-02-24T18:58:01.302Z,8.13
2023-02-24T19:00:31.394Z,7.81
2023-02-24T19:03:04.463Z,7.71
2023-02-24T19:05:38.808Z,8.13
2023-02-24T19:08:11.479Z,7.90
2023-02-24T19:10:45.581Z,8.19
2023-02-24T19:13:25.644Z,8.07
2023-02-24T19:15:57.938Z,8.12
2023-02-24T19:18:35.004Z,8.11
2023-02-24T19:21:15.703Z,8.58
2023-02-24T19:23:54.029Z,8.49
2023-02-24T19:26:29.979Z,8.32
2023-02-24T19:29:07.037Z,8.29
2023-02-24T19:31:41.689Z,8.33
2023-02-24T19:34:18.564Z,8.33
2023-02-24T19:39:45.327Z,8.38
2023-02-24T19:42:14.589Z,8.50
2023-02-24T19:44:48.074Z,7.98
2023-02-24T19:47:17.667Z,8.40
2023-02-24T19:50:05.298Z,8.57
2023-02-24T19:52:38.574Z,8.17
2023-02-24T19:55:10.038Z,8.88
2023-02-24T19:57:45.784Z,8.64
2023-02-24T20:00:15.125Z,8.63
2023-02-24T20:02:44.537Z,8.44
2023-02-24T20:05:16.880Z,8.61
2023-02-24T20:07:47.706Z,8.67
2023-02-24T20:10:20.488Z,8.52
2023-02-24T20:12:50.184Z,8.53
2023-02-24T20:15:23.719Z,8.18
2023-02-24T20:17:52.900Z,8.30
2023-02-24T20:20:39.074Z,8.06
2023-02-24T20:23:09.667Z,8.43
2023-02-24T20:25:41.778Z,8.51
2023-02-24T20:28:12.809Z,8.17
2023-02-24T20:30:43.323Z,8.15
2023-02-24T20:33:17.604Z,8.16
2023-02-24T20:35:52.583Z,7.67
2023-02-24T20:38:26.032Z,8.17
2023-02-24T20:41:04.167Z,8.01
2023-02-24T20:43:34.340Z,8.27
2023-02-24T20:46:16.326Z,8.24
2023-02-24T20:48:47.470Z,7.81
2023-02-24T20:51:18.866Z,7.35
2023-02-24T20:53:57.792Z,7.76
2023-02-24T20:56:29.663Z,8.04
2023-02-24T20:59:01.892Z,7.59
2023-02-24T21:01:31.276Z,7.70
2023-02-24T21:04:03.509Z,7.73
2023-02-24T21:06:34.614Z,7.96
2023-02-24T21:09:05.534Z,7.97
2023-02-24T21:11:47.760Z,7.52
2023-02-24T21:14:17.966Z,7.99
2023-02-24T21:16:47.881Z,7.84
2023-02-24T21:19:18.310Z,7.89
2023-02-24T21:21:54.630Z,7.51
2023-02-24T21:24:24.213Z,7.81
2023-02-24T21:30:16.186Z,7.77
2023-02-24T21:32:48.648Z,7.69
2023-02-24T21:35:25.693Z,7.64
2023-02-24T21:37:58.490Z,8.00
2023-02-24T21:40:27.817Z,7.68
2023-02-24T21:42:56.983Z,7.53
2023-02-24T21:45:35.739Z,7.41
2023-02-24T21:48:18.305Z,7.14
2023-02-24T21:50:48.131Z,7.42
2023-02-24T21:53:20.360Z,7.21
2023-02-24T21:55:50.881Z,7.08
2023-02-24T21:58:23.658Z,7.20
2023-02-24T22:00:59.259Z,7.46
2023-02-24T22:03:28.416Z,7.38
2023-02-24T22:05:58.164Z,7.57
2023-02-24T22:08:42.532Z,7.33
2023-02-24T22:11:12.862Z,7.62
2023-02-24T22:13:42.271Z,7.37
2023-02-24T22:16:15.593Z,7.40
2023-02-24T22:18:48.220Z,7.69
2023-02-24T22:21:19.259Z,7.80
2023-02-24T22:23:50.087Z,7.76
2023-02-24T22:26:20.624Z,7.60
2023-02-24T22:28:51.045Z,7.72
2023-02-24T22:31:23.602Z,7.52
2023-02-24T22:33:54.005Z,7.54
2023-02-24T22:36:25.513Z,7.36
2023-02-24T22:38:57.811Z,7.52
2023-02-24T22:41:30.047Z,7.71
2023-02-24T22:43:59.402Z,7.64
2023-02-24T22:46:31.805Z,7.32
2023-02-24T22:49:01.394Z,7.64
2023-02-24T22:51:30.868Z,7.76
2023-02-24T22:54:01.080Z,7.56
2023-02-24T22:56:31.267Z,7.37
2023-02-24T22:59:01.674Z,7.32
2023-02-24T23:01:34.064Z,7.07
2023-02-24T23:04:04.876Z,7.19
2023-02-24T23:06:36.030Z,7.31
2023-02-24T23:09:08.938Z,7.19
2023-02-24T23:11:41.540Z,7.46
2023-02-24T23:14:14.035Z,7.50
2023-02-24T23:16:47.626Z,7.53
2023-02-24T23:19:19.553Z,7.62
2023-02-24T23:21:52.024Z,7.53
2023-02-24T23:24:27.698Z,7.23
2023-02-24T23:27:01.501Z,7.77
2023-02-24T23:29:31.793Z,7.84
2023-02-24T23:32:02.657Z,7.81
2023-02-24T23:34:33.982Z,7.67
2023-02-24T23:37:03.281Z,7.90
2023-02-24T23:39:35.335Z,7.57
2023-02-24T23:42:03.695Z,7.38
2023-02-24T23:44:32.643Z,7.34
2023-02-24T23:47:05.120Z,7.64
2023-02-24T23:49:47.271Z,7.14
2023-02-24T23:52:16.673Z,7.48
2023-02-24T23:54:45.401Z,7.32
2023-02-24T23:57:16.530Z,7.32
2023-02-24T23:59:45.275Z,7.49
